Time;durP1;ratioP1;P1;durP2;ratioP2;P2;SDS_P1;SDS_P2;PMS_P1;PMS_P2;Temp;Humidity;BMP_temperature;BMP_pressure;BME280_temperature;BME280_humidity;BME280_pressure;Samples;Min_cycle;Max_cycle;Signal;HPM_P1;HPM_P2
2023/12/10 00:00:04;;;;;;;27.70;5.47;;;8.90;99.90;;;;;;5109510;27;20309;-63
2023/12/10 00:02:30;;;;;;;25.73;5.40;;;8.80;99.90;;;;;;5117257;27;20273;-63
2023/12/10 00:04:56;;;;;;;29.70;5.60;;;8.80;99.90;;;;;;5113668;27;20040;-63
2023/12/10 00:07:21;;;;;;;31.07;4.33;;;8.80;99.90;;;;;;5117441;27;20077;-63
2023/12/10 00:09:47;;;;;;;30.63;5.03;;;8.80;99.90;;;;;;5112450;27;20479;-63
2023/12/10 00:12:12;;;;;;;27.70;4.47;;;8.80;99.90;;;;;;5110496;27;20028;-63
2023/12/10 00:14:38;;;;;;;30.63;5.90;;;8.80;99.90;;;;;;5110329;27;20401;-63
2023/12/10 00:17:04;;;;;;;40.47;6.07;;;8.80;99.90;;;;;;5111797;27;20036;-63
2023/12/10 00:19:29;;;;;;;26.63;5.15;;;8.80;99.90;;;;;;5110521;27;20406;-63
2023/12/10 00:21:55;;;;;;;29.03;6.47;;;8.90;99.90;;;;;;5108901;27;20036;-63
2023/12/10 00:24:22;;;;;;;27.00;5.38;;;8.90;99.90;;;;;;5113520;27;20027;-64
2023/12/10 00:26:47;;;;;;;29.23;6.30;;;8.90;99.90;;;;;;5112002;28;20043;-64
2023/12/10 00:29:13;;;;;;;32.40;5.57;;;8.90;99.90;;;;;;5112470;28;20119;-64
2023/12/10 00:31:43;;;;;;;30.07;5.87;;;8.90;99.90;;;;;;5113344;28;20039;-63
2023/12/10 00:34:09;;;;;;;32.88;5.97;;;8.90;99.90;;;;;;5113053;28;20027;-63
2023/12/10 00:36:35;;;;;;;29.35;6.07;;;8.90;99.90;;;;;;5113137;27;20041;-63
2023/12/10 00:39:00;;;;;;;33.65;5.65;;;9.00;99.90;;;;;;5112233;28;20043;-66
2023/12/10 00:41:26;;;;;;;32.83;6.57;;;8.90;99.90;;;;;;5113660;28;20622;-63
2023/12/10 00:43:52;;;;;;;39.92;7.43;;;8.90;99.90;;;;;;5112728;28;20036;-66
2023/12/10 00:46:17;;;;;;;30.73;5.13;;;8.90;99.90;;;;;;5115775;28;20046;-63
2023/12/10 00:48:43;;;;;;;25.47;4.43;;;8.90;99.90;;;;;;5108912;28;20579;-63
2023/12/10 00:51:21;;;;;;;35.70;5.43;;;8.90;99.90;;;;;;5109779;28;20039;-64
2023/12/10 00:53:47;;;;;;;35.03;5.72;;;8.90;99.90;;;;;;5110117;28;20048;-64
2023/12/10 00:56:13;;;;;;;27.17;4.57;;;9.00;99.90;;;;;;5109835;28;20513;-64
2023/12/10 00:58:38;;;;;;;26.33;5.90;;;8.90;99.90;;;;;;5111330;28;20042;-64
2023/12/10 01:01:04;;;;;;;26.90;5.53;;;8.90;99.90;;;;;;5114810;28;20032;-64
2023/12/10 01:03:30;;;;;;;35.13;5.43;;;8.90;99.90;;;;;;5109914;28;20575;-64
2023/12/10 01:05:56;;;;;;;32.65;6.38;;;8.90;99.90;;;;;;5111830;28;20406;-63
2023/12/10 01:08:21;;;;;;;32.70;6.13;;;8.90;99.90;;;;;;5113463;28;20093;-63
2023/12/10 01:10:48;;;;;;;30.40;5.50;;;8.90;99.90;;;;;;5113795;28;20450;-63
2023/12/10 01:13:14;;;;;;;;;;;8.90;99.90;;;;;;5111939;27;20043;-63
2023/12/10 01:15:40;;;;;;;33.75;6.15;;;8.80;99.90;;;;;;5114255;27;19945;-63
2023/12/10 01:18:05;;;;;;;27.95;5.53;;;8.80;99.90;;;;;;5112351;28;20459;-63
2023/12/10 01:20:32;;;;;;;36.30;5.80;;;8.70;99.90;;;;;;5114090;28;20039;-63
2023/12/10 01:22:59;;;;;;;25.73;4.70;;;8.70;99.90;;;;;;5113173;27;20276;-63
2023/12/10 01:25:25;;;;;;;30.10;5.60;;;8.60;99.90;;;;;;5102986;27;20051;-63
2023/12/10 01:27:54;;;;;;;31.20;5.15;;;8.60;99.90;;;;;;5116303;27;20080;-63
2023/12/10 01:30:23;;;;;;;29.75;4.68;;;8.50;99.90;;;;;;5115788;27;20073;-63
2023/12/10 01:32:51;;;;;;;30.95;4.80;;;8.50;99.90;;;;;;5113514;27;20413;-63
2023/12/10 01:35:17;;;;;;;22.85;4.03;;;8.50;99.90;;;;;;5115497;27;20043;-63
2023/12/10 01:37:43;;;;;;;30.73;5.35;;;8.50;99.90;;;;;;5114758;27;20380;-63
2023/12/10 01:40:09;;;;;;;21.38;4.20;;;8.50;99.90;;;;;;5114741;27;20126;-63
2023/12/10 01:42:35;;;;;;;28.23;5.95;;;8.40;99.90;;;;;;5112583;27;20054;-63
2023/12/10 01:45:03;;;;;;;30.33;4.50;;;8.40;99.90;;;;;;5112572;27;20040;-64
2023/12/10 01:47:33;;;;;;;23.88;4.55;;;8.30;99.90;;;;;;5111327;27;20050;-63
2023/12/10 01:49:59;;;;;;;25.30;5.45;;;8.40;99.90;;;;;;5111415;27;20047;-63
2023/12/10 01:52:25;;;;;;;23.95;4.43;;;8.30;99.90;;;;;;5109004;27;20070;-64
2023/12/10 01:54:50;;;;;;;22.23;3.93;;;8.30;99.90;;;;;;5115702;27;20480;-64
2023/12/10 01:57:17;;;;;;;22.73;4.73;;;8.30;99.90;;;;;;5118360;27;21788;-64
2023/12/10 01:59:43;;;;;;;28.92;5.32;;;8.30;99.90;;;;;;5114509;27;20281;-64
2023/12/10 02:02:12;;;;;;;38.38;5.60;;;8.30;99.90;;;;;;5118359;27;20401;-64
2023/12/10 02:04:39;;;;;;;24.90;4.90;;;8.30;99.90;;;;;;5115673;27;20118;-63
2023/12/10 02:07:04;;;;;;;29.15;5.43;;;8.30;99.90;;;;;;5116566;27;20040;-64
2023/12/10 02:09:30;;;;;;;20.67;4.90;;;8.20;99.90;;;;;;5117204;27;20405;-63
2023/12/10 02:11:56;;;;;;;24.50;5.17;;;8.20;99.90;;;;;;5111034;27;20043;-64
2023/12/10 02:14:22;;;;;;;24.00;4.00;;;8.20;99.90;;;;;;5112692;27;20040;-64
2023/12/10 02:16:47;;;;;;;29.13;4.32;;;8.20;99.90;;;;;;5114324;27;20050;-64
2023/12/10 02:19:13;;;;;;;24.30;5.23;;;8.20;99.90;;;;;;5113849;27;20042;-63
2023/12/10 02:21:44;;;;;;;22.37;5.40;;;8.20;99.90;;;;;;5115864;27;20035;-67
2023/12/10 02:24:14;;;;;;;31.08;5.53;;;8.20;99.90;;;;;;5115325;27;20031;-63
2023/12/10 02:26:40;;;;;;;30.45;5.30;;;8.20;99.90;;;;;;5112617;27;20035;-63
2023/12/10 02:29:06;;;;;;;35.50;5.60;;;8.20;99.90;;;;;;5116431;27;20046;-63
2023/12/10 02:31:31;;;;;;;37.53;5.63;;;8.20;99.90;;;;;;5116044;27;20035;-63
2023/12/10 02:33:57;;;;;;;32.55;6.15;;;8.20;99.90;;;;;;5115882;27;20498;-63
2023/12/10 02:36:23;;;;;;;26.10;6.10;;;8.10;99.90;;;;;;5116844;27;20054;-63
2023/12/10 02:38:49;;;;;;;27.77;4.57;;;8.20;99.90;;;;;;5115199;27;20265;-63
2023/12/10 02:41:15;;;;;;;28.50;5.10;;;8.10;99.90;;;;;;5111876;27;20042;-63
2023/12/10 02:43:41;;;;;;;28.23;6.15;;;8.10;99.90;;;;;;5112802;27;20039;-64
2023/12/10 02:46:06;;;;;;;33.65;6.30;;;8.10;99.90;;;;;;5112309;27;20035;-63
2023/12/10 02:48:32;;;;;;;26.40;5.77;;;8.10;99.90;;;;;;5112236;27;20032;-63
2023/12/10 02:50:58;;;;;;;39.83;5.50;;;8.10;99.90;;;;;;5113182;27;20105;-63
2023/12/10 02:53:23;;;;;;;26.80;4.97;;;8.20;99.90;;;;;;5113594;27;20035;-63
2023/12/10 02:55:49;;;;;;;32.80;7.03;;;8.20;99.90;;;;;;5113593;27;20036;-63
2023/12/10 02:58:15;;;;;;;28.30;4.77;;;8.20;99.90;;;;;;5114017;27;20516;-63
2023/12/10 03:00:41;;;;;;;36.38;5.75;;;8.10;99.90;;;;;;5113737;27;20039;-64
2023/12/10 03:03:07;;;;;;;26.33;5.30;;;8.10;99.90;;;;;;5112474;27;20039;-65
2023/12/10 03:05:32;;;;;;;32.90;5.77;;;8.10;99.90;;;;;;5112996;27;20115;-64
2023/12/10 03:07:58;;;;;;;25.63;4.70;;;8.10;99.90;;;;;;5111894;27;20043;-63
2023/12/10 03:10:24;;;;;;;34.43;6.07;;;8.10;99.90;;;;;;5111678;27;20414;-63
2023/12/10 03:12:49;;;;;;;28.40;5.33;;;8.10;99.90;;;;;;5111997;27;20047;-63
2023/12/10 03:15:15;;;;;;;26.60;5.20;;;8.10;99.90;;;;;;5112041;27;20525;-63
2023/12/10 03:17:40;;;;;;;31.70;5.43;;;8.10;99.90;;;;;;5110811;27;20061;-63
2023/12/10 03:20:07;;;;;;;28.47;5.40;;;8.10;99.90;;;;;;5111342;27;20447;-63
2023/12/10 03:22:32;;;;;;;31.02;5.13;;;8.10;99.90;;;;;;5109754;27;20091;-63
2023/12/10 03:24:58;;;;;;;24.07;4.83;;;8.10;99.90;;;;;;5111787;27;20039;-63
2023/12/10 03:27:24;;;;;;;25.90;4.00;;;8.10;99.90;;;;;;5112494;27;20038;-63
2023/12/10 03:29:50;;;;;;;25.17;5.13;;;8.10;99.90;;;;;;5110923;27;20039;-63
2023/12/10 03:32:15;;;;;;;30.40;4.60;;;8.10;99.90;;;;;;5113232;27;20044;-64
2023/12/10 03:34:41;;;;;;;19.23;4.37;;;8.10;99.90;;;;;;5112080;27;20031;-63
2023/12/10 03:37:08;;;;;;;25.33;3.43;;;8.10;99.90;;;;;;5112947;27;20036;-63
2023/12/10 03:39:33;;;;;;;26.10;4.25;;;8.10;99.90;;;;;;5111179;27;20443;-64
2023/12/10 03:41:59;;;;;;;26.87;4.43;;;8.10;99.90;;;;;;5111953;27;20111;-63
2023/12/10 03:44:25;;;;;;;19.30;3.53;;;8.10;99.90;;;;;;5104155;27;20167;-63
2023/12/10 03:46:50;;;;;;;24.27;3.77;;;8.00;99.90;;;;;;5112382;27;20055;-63
2023/12/10 03:49:16;;;;;;;20.90;3.07;;;8.00;99.90;;;;;;5113051;27;20278;-63
2023/12/10 03:51:42;;;;;;;17.90;3.08;;;8.00;99.90;;;;;;5110921;27;20512;-63
2023/12/10 03:54:07;;;;;;;20.90;3.97;;;8.00;99.90;;;;;;5111546;27;20050;-63
2023/12/10 03:56:33;;;;;;;19.10;3.00;;;8.00;99.90;;;;;;5110669;27;20270;-64
2023/12/10 03:58:59;;;;;;;22.23;4.17;;;8.00;99.90;;;;;;5111993;27;20124;-64
2023/12/10 04:01:24;;;;;;;14.35;2.95;;;8.00;99.90;;;;;;5106901;27;20120;-64
2023/12/10 04:03:50;;;;;;;23.52;3.97;;;8.00;99.90;;;;;;5108430;27;20040;-63
2023/12/10 04:06:16;;;;;;;27.73;5.03;;;8.00;99.90;;;;;;5111631;27;20039;-64
2023/12/10 04:08:42;;;;;;;;;;;8.00;99.90;;;;;;5113515;27;20044;-63
2023/12/10 04:11:07;;;;;;;20.88;4.03;;;8.00;99.90;;;;;;5112491;27;20173;-63
2023/12/10 04:13:33;;;;;;;31.70;4.50;;;8.00;99.90;;;;;;5113924;27;20398;-63
2023/12/10 04:16:00;;;;;;;18.65;4.03;;;8.00;99.90;;;;;;5111157;27;20031;-63
2023/12/10 04:18:27;;;;;;;19.00;3.97;;;7.90;99.90;;;;;;5109253;27;20066;-63
2023/12/10 04:20:53;;;;;;;25.48;4.00;;;7.90;99.90;;;;;;5111192;27;20044;-63
2023/12/10 04:23:18;;;;;;;24.23;4.45;;;7.90;99.90;;;;;;5109211;27;20035;-64
2023/12/10 04:25:44;;;;;;;24.45;3.85;;;7.90;99.90;;;;;;5111153;28;20122;-63
2023/12/10 04:28:10;;;;;;;22.27;4.10;;;7.90;99.90;;;;;;5111215;27;20043;-63
2023/12/10 04:30:36;;;;;;;23.75;3.97;;;7.90;99.90;;;;;;5092626;28;20047;-63
2023/12/10 04:33:04;;;;;;;22.23;2.88;;;7.90;99.90;;;;;;5110172;28;20561;-63
2023/12/10 04:35:30;;;;;;;25.38;3.20;;;7.90;99.90;;;;;;5117651;28;20035;-64
2023/12/10 04:37:55;;;;;;;12.02;3.00;;;7.90;99.90;;;;;;5111736;28;20046;-63
2023/12/10 04:40:22;;;;;;;21.93;3.33;;;7.90;99.90;;;;;;5110767;28;20049;-63
2023/12/10 04:42:49;;;;;;;18.83;3.42;;;7.90;99.90;;;;;;5107512;28;20255;-63
2023/12/10 04:45:14;;;;;;;24.20;3.67;;;7.90;99.90;;;;;;5105764;28;20046;-63
2023/12/10 04:47:40;;;;;;;30.10;4.55;;;8.00;99.90;;;;;;5109281;28;20032;-66
2023/12/10 04:50:06;;;;;;;26.07;4.17;;;8.00;99.90;;;;;;5111084;28;20403;-63
2023/12/10 04:52:32;;;;;;;18.33;2.90;;;7.90;99.90;;;;;;5109085;28;20067;-63
2023/12/10 04:54:58;;;;;;;22.98;3.83;;;8.00;99.90;;;;;;5112781;28;20039;-63
2023/12/10 04:57:25;;;;;;;27.17;4.32;;;8.00;99.90;;;;;;5116280;27;20146;-63
2023/12/10 04:59:51;;;;;;;24.85;3.88;;;8.00;99.90;;;;;;5115796;27;20173;-63
2023/12/10 05:02:16;;;;;;;21.42;2.90;;;8.00;99.90;;;;;;5120489;27;20124;-63
2023/12/10 05:04:42;;;;;;;22.63;4.63;;;8.00;99.90;;;;;;5119857;27;20042;-63
2023/12/10 05:07:08;;;;;;;27.07;4.80;;;8.00;99.90;;;;;;5097741;27;20354;-63
2023/12/10 05:09:33;;;;;;;26.05;3.97;;;8.00;99.90;;;;;;5113580;27;20046;-63
2023/12/10 05:11:59;;;;;;;27.30;4.03;;;8.00;99.90;;;;;;5114306;27;20039;-63
2023/12/10 05:14:25;;;;;;;26.50;5.00;;;8.00;99.90;;;;;;5115319;27;20050;-63
2023/12/10 05:16:50;;;;;;;29.83;3.97;;;8.00;99.90;;;;;;5114582;27;20487;-63
2023/12/10 05:19:16;;;;;;;22.00;3.50;;;8.10;99.90;;;;;;5114913;27;20627;-63
2023/12/10 05:21:41;;;;;;;26.57;4.77;;;8.10;99.90;;;;;;5111985;27;20039;-64
2023/12/10 05:24:08;;;;;;;29.83;5.50;;;8.10;99.90;;;;;;5115153;27;20038;-64
2023/12/10 05:26:34;;;;;;;24.55;4.57;;;8.10;99.90;;;;;;5113408;27;20036;-64
2023/12/10 05:28:59;;;;;;;23.13;4.40;;;8.10;99.90;;;;;;5114912;27;20489;-64
2023/12/10 05:31:25;;;;;;;25.45;4.28;;;8.10;99.90;;;;;;5115366;27;20039;-64
2023/12/10 05:33:51;;;;;;;29.97;4.93;;;8.10;99.90;;;;;;5114143;27;20044;-65
2023/12/10 05:36:16;;;;;;;26.98;5.47;;;8.10;99.90;;;;;;5115267;27;20283;-65
2023/12/10 05:38:42;;;;;;;29.70;4.47;;;8.10;99.90;;;;;;5114392;27;20281;-64
2023/12/10 05:41:07;;;;;;;30.07;5.03;;;8.10;99.90;;;;;;5113207;27;20277;-64
2023/12/10 05:43:33;;;;;;;14.97;4.10;;;8.10;99.90;;;;;;5113663;27;20047;-64
2023/12/10 05:45:59;;;;;;;21.00;4.73;;;8.10;99.90;;;;;;5113153;27;20035;-65
2023/12/10 05:48:27;;;;;;;16.52;3.13;;;8.10;99.90;;;;;;5113516;27;20050;-64
2023/12/10 05:50:53;;;;;;;24.65;4.15;;;8.10;99.90;;;;;;5106098;27;20081;-64
2023/12/10 05:53:19;;;;;;;15.50;3.70;;;8.10;99.90;;;;;;5113950;27;20048;-64
2023/12/10 05:55:45;;;;;;;22.75;3.63;;;8.10;99.90;;;;;;5113564;27;20031;-64
2023/12/10 05:58:10;;;;;;;17.73;3.87;;;8.10;99.90;;;;;;5115710;27;20044;-64
2023/12/10 06:00:36;;;;;;;22.53;4.27;;;8.20;99.90;;;;;;5113121;27;20092;-64
2023/12/10 06:03:02;;;;;;;30.73;4.57;;;8.20;99.90;;;;;;5115416;27;20285;-64
2023/12/10 06:05:28;;;;;;;23.50;3.13;;;8.20;99.90;;;;;;5113817;27;20569;-64
2023/12/10 06:07:54;;;;;;;30.43;4.87;;;8.20;99.90;;;;;;5113586;27;20032;-64
2023/12/10 06:10:20;;;;;;;;;;;8.20;99.90;;;;;;5115710;27;20047;-65
2023/12/10 06:12:46;;;;;;;23.17;4.35;;;8.20;99.90;;;;;;5094497;28;19920;-64
2023/12/10 06:15:12;;;;;;;35.47;5.32;;;8.20;99.90;;;;;;5114948;27;21154;-64
2023/12/10 06:17:37;;;;;;;21.58;4.70;;;8.20;99.90;;;;;;5113438;27;20038;-64
2023/12/10 06:20:08;;;;;;;27.13;3.60;;;8.30;99.90;;;;;;5113721;27;20085;-64
2023/12/10 06:22:33;;;;;;;23.35;4.57;;;8.30;99.90;;;;;;5113999;27;20047;-64
2023/12/10 06:24:59;;;;;;;23.27;3.85;;;8.30;99.90;;;;;;5113522;27;20032;-64
2023/12/10 06:27:25;;;;;;;23.27;4.40;;;8.30;99.90;;;;;;5114733;27;20474;-64
2023/12/10 06:29:51;;;;;;;19.20;3.67;;;8.30;99.90;;;;;;5112992;27;20040;-64
2023/12/10 06:32:17;;;;;;;18.60;3.45;;;8.30;99.90;;;;;;5113601;27;20047;-64
2023/12/10 06:34:42;;;;;;;24.48;4.80;;;8.30;99.90;;;;;;5113066;27;20569;-64
2023/12/10 06:37:08;;;;;;;32.80;6.15;;;8.30;99.90;;;;;;5115110;27;20409;-64
2023/12/10 06:39:34;;;;;;;29.35;4.63;;;8.30;99.90;;;;;;5113997;27;20027;-64
2023/12/10 06:41:59;;;;;;;25.63;3.73;;;8.30;99.90;;;;;;5115538;27;20148;-64
2023/12/10 06:44:25;;;;;;;41.97;6.03;;;8.30;99.90;;;;;;5113667;27;20085;-64
2023/12/10 06:46:51;;;;;;;36.47;6.03;;;8.30;99.90;;;;;;5111936;27;20055;-64
2023/12/10 06:49:17;;;;;;;36.97;7.10;;;8.30;99.90;;;;;;5112883;27;20035;-64
2023/12/10 06:51:43;;;;;;;40.70;6.82;;;8.30;99.90;;;;;;5092688;28;20038;-64
2023/12/10 06:54:09;;;;;;;33.13;6.43;;;8.30;99.90;;;;;;5107922;27;20530;-65
2023/12/10 06:56:39;;;;;;;;;;;8.30;99.90;;;;;;5112121;27;20043;-65
2023/12/10 06:59:06;;;;;;;38.67;6.30;;;8.30;99.90;;;;;;5113916;27;19960;-65
2023/12/10 07:01:33;;;;;;;34.47;6.40;;;8.30;99.90;;;;;;5114542;27;20469;-65
2023/12/10 07:03:59;;;;;;;36.83;6.03;;;8.30;99.90;;;;;;5112794;27;20077;-64
2023/12/10 07:06:24;;;;;;;42.07;6.13;;;8.30;99.90;;;;;;5111928;27;20104;-65
2023/12/10 07:08:50;;;;;;;25.10;4.50;;;8.30;99.90;;;;;;5112238;27;20040;-65
2023/12/10 07:11:16;;;;;;;31.17;5.27;;;8.30;99.90;;;;;;5112575;27;20386;-64
2023/12/10 07:13:41;;;;;;;29.92;5.47;;;8.30;99.90;;;;;;5111616;27;20036;-64
2023/12/10 07:16:07;;;;;;;34.63;5.60;;;8.30;99.90;;;;;;5111760;27;20118;-64
2023/12/10 07:18:33;;;;;;;34.88;4.93;;;8.30;99.90;;;;;;5111807;27;20164;-64
2023/12/10 07:20:59;;;;;;;42.17;6.70;;;8.30;99.90;;;;;;5111685;27;20031;-64
2023/12/10 07:23:25;;;;;;;30.77;4.50;;;8.30;99.90;;;;;;5111839;27;20341;-65
2023/12/10 07:25:50;;;;;;;19.27;4.45;;;8.30;99.90;;;;;;5110701;27;20048;-64
2023/12/10 07:28:16;;;;;;;16.63;3.47;;;8.20;99.90;;;;;;5115635;27;20478;-64
2023/12/10 07:30:42;;;;;;;31.58;5.32;;;8.30;99.90;;;;;;5112751;27;20375;-63
2023/12/10 07:33:07;;;;;;;23.27;4.13;;;8.30;99.90;;;;;;5109350;27;20039;-64
2023/12/10 07:35:33;;;;;;;22.50;3.73;;;8.30;99.90;;;;;;5114146;27;20275;-64
2023/12/10 07:37:59;;;;;;;18.37;2.73;;;8.30;99.90;;;;;;5116092;27;20027;-64
2023/12/10 07:40:24;;;;;;;21.80;3.03;;;8.20;99.90;;;;;;5114890;27;20409;-64
2023/12/10 07:42:51;;;;;;;28.00;3.80;;;8.30;99.90;;;;;;5112643;27;20047;-64
2023/12/10 07:45:16;;;;;;;;;;;8.20;99.90;;;;;;5109723;27;20439;-64
2023/12/10 07:47:42;;;;;;;24.35;3.15;;;8.20;99.90;;;;;;5109462;27;19968;-64
2023/12/10 07:50:08;;;;;;;22.03;3.37;;;8.20;99.90;;;;;;5108664;27;20081;-64
2023/12/10 07:52:33;;;;;;;22.70;3.05;;;8.20;99.90;;;;;;5110050;27;20387;-64
2023/12/10 07:54:59;;;;;;;11.70;2.70;;;8.20;99.90;;;;;;5112003;27;20092;-65
2023/12/10 07:57:25;;;;;;;18.03;3.20;;;8.20;99.90;;;;;;5110832;27;20039;-64
2023/12/10 07:59:50;;;;;;;17.63;3.70;;;8.20;99.90;;;;;;5109623;27;20066;-64
2023/12/10 08:02:16;;;;;;;20.13;3.27;;;8.20;99.90;;;;;;5112068;27;20043;-64
2023/12/10 08:04:42;;;;;;;31.07;4.20;;;8.20;99.90;;;;;;5112769;27;20031;-64
2023/12/10 08:07:07;;;;;;;21.67;4.17;;;8.20;99.90;;;;;;5113430;27;20038;-64
2023/12/10 08:09:34;;;;;;;19.20;3.57;;;8.20;99.90;;;;;;5113088;27;20154;-64
2023/12/10 08:12:00;;;;;;;17.70;2.80;;;8.20;99.90;;;;;;5108756;27;20848;-64
2023/12/10 08:14:27;;;;;;;19.85;4.30;;;8.20;99.90;;;;;;5112177;27;20043;-64
2023/12/10 08:16:53;;;;;;;16.42;3.13;;;8.20;99.90;;;;;;5112908;28;20460;-64
2023/12/10 08:19:18;;;;;;;26.08;4.50;;;8.20;99.90;;;;;;5114688;27;20035;-64
2023/12/10 08:21:44;;;;;;;23.80;4.00;;;8.20;99.90;;;;;;5114465;27;20036;-64
2023/12/10 08:24:10;;;;;;;23.10;4.65;;;8.20;99.90;;;;;;5112192;27;20036;-64
2023/12/10 08:26:36;;;;;;;27.77;4.85;;;8.20;99.90;;;;;;5116110;27;20031;-64
2023/12/10 08:29:02;;;;;;;30.87;4.73;;;8.20;99.90;;;;;;5115953;27;20031;-64
2023/12/10 08:31:27;;;;;;;27.85;5.68;;;8.20;99.90;;;;;;5111723;27;20273;-64
2023/12/10 08:33:53;;;;;;;35.37;5.63;;;8.10;99.90;;;;;;5111501;27;20046;-64
2023/12/10 08:36:19;;;;;;;27.23;4.82;;;8.10;99.90;;;;;;5110275;28;20038;-65
2023/12/10 08:38:44;;;;;;;32.17;5.90;;;8.20;99.90;;;;;;5111944;28;20036;-64
2023/12/10 08:41:10;;;;;;;41.03;6.20;;;8.10;99.90;;;;;;5113927;28;20038;-64
2023/12/10 08:43:37;;;;;;;42.97;7.37;;;8.10;99.90;;;;;;5105514;28;20280;-64
2023/12/10 08:46:03;;;;;;;37.83;7.10;;;8.10;99.90;;;;;;5106795;28;20039;-64
2023/12/10 08:48:30;;;;;;;47.42;9.10;;;8.10;99.90;;;;;;5109146;27;20032;-64
2023/12/10 08:50:56;;;;;;;51.85;7.63;;;8.10;99.90;;;;;;5105611;28;20124;-65
2023/12/10 08:53:21;;;;;;;42.75;8.15;;;8.10;99.90;;;;;;5108376;28;20063;-65
2023/12/10 08:55:48;;;;;;;48.50;8.40;;;8.10;99.90;;;;;;5105929;28;20032;-65
2023/12/10 08:58:14;;;;;;;45.55;7.47;;;8.00;99.90;;;;;;5108409;28;20278;-65
2023/12/10 09:00:40;;;;;;;60.53;8.88;;;8.10;99.90;;;;;;5107798;28;20050;-65
2023/12/10 09:03:05;;;;;;;52.97;7.97;;;8.10;99.90;;;;;;5111768;28;20060;-64
2023/12/10 09:05:31;;;;;;;58.73;9.13;;;8.10;99.90;;;;;;5095023;28;20285;-65
2023/12/10 09:07:57;;;;;;;52.97;8.50;;;8.10;99.90;;;;;;5103640;28;20036;-65
2023/12/10 09:10:23;;;;;;;42.85;8.10;;;8.10;99.90;;;;;;5104053;28;20042;-65
2023/12/10 09:12:49;;;;;;;37.00;6.83;;;8.10;99.90;;;;;;5103645;28;20048;-63
2023/12/10 09:15:14;;;;;;;53.07;8.27;;;8.10;99.90;;;;;;5106237;28;20968;-64
2023/12/10 09:17:40;;;;;;;47.17;7.07;;;8.10;99.90;;;;;;5106415;28;20038;-64
2023/12/10 09:20:07;;;;;;;32.90;6.03;;;8.10;99.90;;;;;;5107321;28;20042;-63
2023/12/10 09:22:32;;;;;;;29.88;6.32;;;8.10;99.90;;;;;;5106324;27;20447;-64
2023/12/10 09:24:58;;;;;;;45.20;7.03;;;8.10;99.90;;;;;;5099284;28;20118;-63
2023/12/10 09:27:24;;;;;;;35.28;6.88;;;8.10;99.90;;;;;;5111983;27;20118;-64
2023/12/10 09:29:50;;;;;;;37.87;5.57;;;8.20;99.90;;;;;;5111033;28;20472;-63
2023/12/10 09:32:16;;;;;;;40.05;6.93;;;8.20;99.90;;;;;;5111418;28;20312;-62
2023/12/10 09:34:43;;;;;;;37.97;6.57;;;8.20;99.90;;;;;;5106614;28;20046;-64
2023/12/10 09:37:11;;;;;;;43.20;6.40;;;8.20;99.90;;;;;;5102926;28;21616;-64
2023/12/10 09:39:37;;;;;;;40.67;6.43;;;8.20;99.90;;;;;;5104374;28;20051;-63
2023/12/10 09:42:03;;;;;;;;;;;8.20;99.90;;;;;;5108820;27;20047;-63
2023/12/10 09:44:29;;;;;;;32.03;5.95;;;8.20;99.90;;;;;;5113233;27;19915;-63
2023/12/10 09:46:54;;;;;;;40.17;7.13;;;8.20;99.90;;;;;;5109204;27;20032;-64
2023/12/10 09:49:22;;;;;;;34.07;6.17;;;8.30;99.90;;;;;;5107457;27;20363;-65
2023/12/10 09:51:47;;;;;;;33.15;6.43;;;8.30;99.90;;;;;;5113797;27;20451;-63
2023/12/10 09:54:13;;;;;;;34.87;6.77;;;8.20;99.90;;;;;;5110677;27;20046;-65
2023/12/10 09:56:39;;;;;;;39.80;7.22;;;8.20;99.90;;;;;;5114435;27;20386;-64
2023/12/10 09:59:06;;;;;;;48.60;8.88;;;8.20;99.90;;;;;;5112274;27;20027;-64
2023/12/10 10:01:31;;;;;;;47.83;7.63;;;8.20;99.90;;;;;;5114209;27;20303;-64
2023/12/10 10:03:58;;;;;;;44.10;7.27;;;8.20;99.90;;;;;;5108269;27;20077;-64
2023/12/10 10:06:24;;;;;;;46.05;8.85;;;8.20;99.90;;;;;;5113454;27;20039;-64
2023/12/10 10:08:49;;;;;;;46.10;7.20;;;8.20;99.90;;;;;;5121833;27;20055;-64
2023/12/10 10:11:16;;;;;;;37.50;6.87;;;8.20;99.90;;;;;;5117680;27;20281;-63
2023/12/10 10:13:52;;;;;;;43.05;7.93;;;8.20;99.90;;;;;;5113004;27;20086;-64
2023/12/10 10:16:17;;;;;;;38.55;7.10;;;8.20;99.90;;;;;;5110611;27;21077;-64
2023/12/10 10:18:47;;;;;;;42.78;5.97;;;8.30;99.90;;;;;;5110473;27;20397;-65
2023/12/10 10:21:12;;;;;;;53.85;8.75;;;8.30;99.90;;;;;;5108933;27;20040;-63
2023/12/10 10:23:38;;;;;;;48.17;7.45;;;8.30;99.90;;;;;;5110972;27;20038;-62
2023/12/10 10:26:04;;;;;;;39.67;6.53;;;8.30;99.90;;;;;;5116131;27;20116;-64
2023/12/10 10:28:30;;;;;;;35.57;6.43;;;8.30;99.90;;;;;;5112774;27;20509;-63
2023/12/10 10:30:56;;;;;;;39.63;5.60;;;8.40;99.90;;;;;;5108407;27;20386;-65
2023/12/10 10:33:25;;;;;;;33.22;5.13;;;8.40;99.90;;;;;;5112401;27;20098;-63
2023/12/10 10:35:52;;;;;;;42.83;5.40;;;8.40;99.90;;;;;;5112983;27;20078;-64
2023/12/10 10:38:20;;;;;;;40.28;6.57;;;8.40;99.90;;;;;;5114671;27;20050;-64
2023/12/10 10:40:47;;;;;;;41.58;7.05;;;8.40;99.90;;;;;;5104551;27;20061;-64
2023/12/10 10:43:13;;;;;;;44.47;6.47;;;8.40;99.90;;;;;;5109199;27;20122;-64
2023/12/10 10:45:39;;;;;;;35.50;5.82;;;8.40;99.90;;;;;;5112003;27;20043;-63
2023/12/10 10:48:05;;;;;;;44.60;6.93;;;8.40;99.90;;;;;;5109738;27;20096;-63
2023/12/10 10:50:36;;;;;;;37.33;5.40;;;8.40;99.90;;;;;;5113053;27;20048;-64
2023/12/10 10:53:02;;;;;;;31.33;5.35;;;8.40;99.90;;;;;;5110373;27;20032;-63
2023/12/10 10:55:28;;;;;;;41.70;5.82;;;8.40;99.90;;;;;;5107160;27;20043;-64
2023/12/10 10:57:57;;;;;;;39.72;5.95;;;8.40;99.90;;;;;;5110232;27;20494;-63
2023/12/10 11:00:22;;;;;;;31.50;5.55;;;8.40;99.90;;;;;;5093635;27;20694;-64
2023/12/10 11:02:53;;;;;;;31.70;6.13;;;8.40;99.90;;;;;;5102344;27;20037;-64
2023/12/10 11:05:37;;;;;;;36.28;5.20;;;8.40;99.90;;;;;;5110959;27;20043;-63
2023/12/10 11:08:06;;;;;;;47.72;8.07;;;8.40;99.90;;;;;;5110185;27;20084;-63
2023/12/10 11:10:34;;;;;;;37.05;6.20;;;8.50;99.90;;;;;;5091147;27;20043;-63
2023/12/10 11:13:00;;;;;;;29.42;5.20;;;8.50;99.90;;;;;;5108802;27;20123;-63
2023/12/10 11:15:27;;;;;;;37.97;6.05;;;8.50;99.90;;;;;;5113411;27;20038;-63
2023/12/10 11:17:57;;;;;;;39.95;6.20;;;8.60;99.90;;;;;;5111522;27;20075;-64
2023/12/10 11:20:43;;;;;;;29.70;5.28;;;8.60;99.90;;;;;;5112596;27;20236;-63
2023/12/10 11:23:16;;;;;;;27.80;5.20;;;8.60;99.90;;;;;;5112128;27;20523;-62
2023/12/10 11:25:42;;;;;;;25.10;4.88;;;8.70;99.90;;;;;;5111743;27;20035;-64
2023/12/10 11:28:17;;;;;;;26.60;6.03;;;8.70;99.90;;;;;;5114458;27;20047;-63
2023/12/10 11:30:44;;;;;;;37.20;7.03;;;8.80;99.90;;;;;;5117352;27;20120;-63
2023/12/10 11:33:12;;;;;;;37.15;6.07;;;8.80;99.90;;;;;;5116642;27;20118;-64
2023/12/10 11:35:39;;;;;;;35.78;5.45;;;8.90;99.90;;;;;;5107206;27;20046;-64
2023/12/10 11:38:04;;;;;;;;;;;8.90;99.90;;;;;;5108347;27;20509;-62
2023/12/10 11:40:30;;;;;;;26.42;4.45;;;8.90;99.90;;;;;;5103725;27;19923;-62
2023/12/10 11:43:09;;;;;;;39.13;5.40;;;8.90;99.90;;;;;;5107687;27;20039;-62
2023/12/10 11:45:35;;;;;;;28.10;4.43;;;8.90;99.90;;;;;;5106602;27;21338;-63
2023/12/10 11:48:03;;;;;;;35.42;5.97;;;8.90;99.90;;;;;;5103363;27;20046;-64
2023/12/10 11:50:34;;;;;;;27.50;4.43;;;8.90;99.90;;;;;;5106468;27;20053;-63
2023/12/10 11:53:00;;;;;;;30.02;4.68;;;8.90;99.90;;;;;;5104743;27;20092;-62
2023/12/10 11:55:27;;;;;;;32.95;5.07;;;8.90;99.90;;;;;;5104640;27;20031;-64
2023/12/10 11:57:56;;;;;;;22.90;5.97;;;9.00;99.90;;;;;;5100645;27;20402;-64
2023/12/10 12:00:23;;;;;;;28.77;5.53;;;8.90;99.90;;;;;;5108261;27;20046;-65
2023/12/10 12:02:48;;;;;;;32.80;5.38;;;8.90;99.90;;;;;;5106502;27;20054;-63
2023/12/10 12:05:15;;;;;;;44.13;5.43;;;8.90;99.90;;;;;;5109949;27;20405;-63
2023/12/10 12:07:42;;;;;;;27.95;4.47;;;8.80;99.90;;;;;;5109924;27;20444;-63
2023/12/10 12:10:11;;;;;;;21.25;4.20;;;8.80;99.90;;;;;;5107998;27;20058;-63
2023/12/10 12:12:44;;;;;;;29.40;4.72;;;8.90;99.90;;;;;;5099027;27;20085;-64
2023/12/10 12:15:11;;;;;;;38.67;3.92;;;8.80;99.90;;;;;;5106543;27;20549;-63
2023/12/10 12:17:37;;;;;;;23.20;4.00;;;8.80;99.90;;;;;;5093531;28;20047;-64
2023/12/10 12:20:21;;;;;;;35.00;4.93;;;8.80;99.90;;;;;;5111754;27;20035;-63
2023/12/10 12:22:47;;;;;;;29.95;4.43;;;8.80;99.90;;;;;;5106893;27;20058;-64
2023/12/10 12:25:13;;;;;;;15.65;3.40;;;8.90;99.90;;;;;;5111294;27;20046;-63
2023/12/10 12:27:39;;;;;;;22.23;3.97;;;8.90;99.90;;;;;;5109307;27;20035;-64
2023/12/10 12:30:06;;;;;;;33.60;4.40;;;8.90;99.90;;;;;;5110019;27;20042;-64
2023/12/10 12:32:31;;;;;;;;;;;8.90;99.90;;;;;;5109448;27;20043;-64
2023/12/10 12:34:57;;;;;;;23.35;3.30;;;8.90;99.90;;;;;;5106243;27;19966;-63
2023/12/10 12:37:22;;;;;;;22.80;3.00;;;8.90;99.90;;;;;;5106053;27;20122;-62
2023/12/10 12:39:48;;;;;;;20.07;3.30;;;8.90;99.90;;;;;;5110161;28;20054;-64
2023/12/10 12:42:14;;;;;;;15.00;2.73;;;8.90;99.90;;;;;;5113568;28;20483;-66